createdAt,value
2023-05-08T00:00:43.681Z,66.06
2023-05-08T00:04:07.569Z,65.25
2023-05-08T00:07:31.482Z,66.47
2023-05-08T00:10:55.092Z,64.50
2023-05-08T00:14:18.570Z,65.21
2023-05-08T00:17:42.202Z,65.01
2023-05-08T00:21:07.041Z,66.18
2023-05-08T00:24:30.744Z,65.78
2023-05-08T00:27:54.234Z,67.44
2023-05-08T00:31:17.799Z,66.45
2023-05-08T00:34:41.153Z,67.87
2023-05-08T00:38:04.705Z,68.49
2023-05-08T00:41:28.792Z,68.47
2023-05-08T00:44:52.615Z,69.39
2023-05-08T00:48:16.910Z,69.37
2023-05-08T00:51:41.581Z,70.01
2023-05-08T00:55:05.048Z,70.45
2023-05-08T00:58:29.463Z,69.79
2023-05-08T01:01:53.995Z,68.92
2023-05-08T01:05:18.210Z,69.37
2023-05-08T01:08:42.058Z,69.40
2023-05-08T01:12:05.611Z,68.85
2023-05-08T01:15:29.111Z,69.38
2023-05-08T01:18:52.737Z,69.16
2023-05-08T01:22:16.379Z,70.47
2023-05-08T01:25:40.631Z,70.06
2023-05-08T01:29:05.019Z,69.55
2023-05-08T01:32:28.790Z,70.66
2023-05-08T01:35:52.272Z,70.09
2023-05-08T01:39:17.735Z,69.11
2023-05-08T01:42:42.473Z,68.16
2023-05-08T01:46:06.031Z,68.41
2023-05-08T01:49:30.040Z,68.13
2023-05-08T01:52:54.232Z,68.58
2023-05-08T01:56:18.444Z,69.43
2023-05-08T01:59:42.110Z,68.29
2023-05-08T02:03:07.460Z,68.88
2023-05-08T02:06:31.516Z,68.02
2023-05-08T02:09:54.872Z,68.20
2023-05-08T02:13:20.424Z,69.00
2023-05-08T02:16:43.867Z,68.64
2023-05-08T02:20:07.999Z,68.46
2023-05-08T02:23:32.724Z,68.64
2023-05-08T02:26:57.636Z,68.71
2023-05-08T02:30:23.115Z,69.22
2023-05-08T02:33:46.594Z,67.86
2023-05-08T02:37:10.035Z,67.69
2023-05-08T02:40:33.606Z,68.16
2023-05-08T02:43:57.430Z,67.02
2023-05-08T02:47:20.853Z,66.80
2023-05-08T02:50:44.786Z,66.80
2023-05-08T02:54:08.916Z,67.47
2023-05-08T02:57:32.495Z,66.48
2023-05-08T03:00:56.017Z,66.97
2023-05-08T03:04:20.048Z,66.91
2023-05-08T03:07:43.388Z,66.27
2023-05-08T03:11:07.044Z,66.00
2023-05-08T03:14:30.736Z,66.59
2023-05-08T03:17:55.407Z,65.55
2023-05-08T03:21:19.355Z,65.54
2023-05-08T03:24:43.121Z,66.46
2023-05-08T03:28:06.770Z,66.04
2023-05-08T03:31:31.676Z,66.25
2023-05-08T03:34:56.827Z,66.17
2023-05-08T03:38:20.818Z,66.30
2023-05-08T03:41:44.729Z,65.31
2023-05-08T03:45:08.621Z,65.35
2023-05-08T03:48:32.455Z,64.93
2023-05-08T03:51:56.252Z,64.78
2023-05-08T03:55:20.322Z,64.80
2023-05-08T03:58:45.244Z,64.22
2023-05-08T04:02:10.467Z,63.61
2023-05-08T04:05:33.958Z,64.63
2023-05-08T04:08:59.709Z,65.16
2023-05-08T04:12:23.486Z,64.28
2023-05-08T04:15:48.719Z,64.23
2023-05-08T04:19:12.890Z,64.44
2023-05-08T04:22:36.918Z,63.59
2023-05-08T04:26:00.846Z,63.17
2023-05-08T04:29:26.672Z,62.89
2023-05-08T04:32:50.283Z,61.50
2023-05-08T04:36:14.365Z,60.25
2023-05-08T04:39:40.971Z,60.49
2023-05-08T04:43:06.632Z,61.20
2023-05-08T04:46:30.394Z,61.77
2023-05-08T04:49:54.567Z,61.52
2023-05-08T04:53:18.171Z,60.14
2023-05-08T04:56:42.303Z,59.74
2023-05-08T05:00:06.692Z,58.91
2023-05-08T05:03:34.783Z,59.50
2023-05-08T05:06:58.412Z,58.96
2023-05-08T05:10:22.474Z,59.37
2023-05-08T05:13:46.010Z,59.55
2023-05-08T05:17:10.382Z,59.49
2023-05-08T05:20:35.275Z,58.68
2023-05-08T05:23:59.734Z,58.13
2023-05-08T05:27:24.310Z,58.55
2023-05-08T05:30:48.500Z,58.29
2023-05-08T05:34:12.929Z,57.28
2023-05-08T05:37:37.044Z,57.03
2023-05-08T05:41:00.953Z,57.01
2023-05-08T05:44:24.341Z,57.05
2023-05-08T05:47:54.523Z,56.86
2023-05-08T05:51:21.588Z,56.96
2023-05-08T05:54:46.913Z,55.37
2023-05-08T05:58:10.993Z,55.82
2023-05-08T06:01:35.279Z,55.29
2023-05-08T06:04:58.712Z,54.84
2023-05-08T06:08:22.164Z,54.92
2023-05-08T06:11:45.859Z,54.88
2023-05-08T06:15:10.139Z,54.30
2023-05-08T06:18:34.144Z,55.40
2023-05-08T06:21:58.946Z,54.86
2023-05-08T06:25:22.506Z,54.63
2023-05-08T06:28:46.228Z,54.71
2023-05-08T06:32:10.911Z,54.13
2023-05-08T06:35:35.479Z,54.14
2023-05-08T06:38:59.209Z,53.98
2023-05-08T06:42:25.112Z,53.89
2023-05-08T06:45:48.593Z,53.79
2023-05-08T06:49:12.768Z,53.45
2023-05-08T06:52:36.299Z,53.95
2023-05-08T06:56:00.275Z,53.48
2023-05-08T06:59:26.545Z,52.80
2023-05-08T07:02:50.339Z,52.14
2023-05-08T07:06:14.050Z,52.80
2023-05-08T07:09:37.465Z,52.92
2023-05-08T07:13:02.426Z,52.57
2023-05-08T07:16:26.056Z,52.48
2023-05-08T07:19:49.590Z,52.51
2023-05-08T07:23:12.943Z,52.91
2023-05-08T07:26:37.250Z,52.74
2023-05-08T07:30:04.517Z,52.83
2023-05-08T07:33:31.044Z,52.27
2023-05-08T07:36:55.449Z,52.49
2023-05-08T07:40:18.925Z,52.18
2023-05-08T07:43:45.411Z,52.22
2023-05-08T07:47:09.006Z,52.35
2023-05-08T07:50:32.733Z,52.45
2023-05-08T07:53:56.383Z,52.11
2023-05-08T07:57:19.997Z,52.55
2023-05-08T08:00:44.488Z,52.45
2023-05-08T08:04:08.538Z,51.86
2023-05-08T08:07:35.916Z,51.96
2023-05-08T08:11:00.151Z,52.57
2023-05-08T08:14:25.213Z,52.90
2023-05-08T08:17:49.826Z,52.67
2023-05-08T08:21:13.331Z,52.62
2023-05-08T08:24:44.273Z,52.25
2023-05-08T08:28:08.060Z,52.41
2023-05-08T08:31:31.961Z,52.00
2023-05-08T08:34:55.905Z,52.54
2023-05-08T08:38:19.753Z,51.63
2023-05-08T08:41:43.128Z,51.87
2023-05-08T08:45:07.233Z,51.94
2023-05-08T08:48:30.939Z,51.79
2023-05-08T08:51:54.464Z,51.95
2023-05-08T08:55:18.703Z,51.10
2023-05-08T08:58:44.175Z,51.09
2023-05-08T09:02:08.620Z,51.68
2023-05-08T09:05:33.510Z,51.79
2023-05-08T09:08:57.895Z,52.10
2023-05-08T09:12:21.775Z,50.97
2023-05-08T09:15:47.202Z,50.12
2023-05-08T09:19:11.569Z,50.25
2023-05-08T09:22:35.482Z,50.72
2023-05-08T09:26:01.243Z,50.95
2023-05-08T09:29:26.838Z,51.42
2023-05-08T09:32:50.878Z,50.85
2023-05-08T09:36:14.202Z,50.78
2023-05-08T09:39:41.739Z,50.56
2023-05-08T09:43:05.863Z,51.77
2023-05-08T09:46:32.409Z,51.73
2023-05-08T09:49:57.125Z,52.29
2023-05-08T09:53:20.984Z,52.37
2023-05-08T09:56:44.909Z,53.23
2023-05-08T10:00:10.352Z,52.45
2023-05-08T10:03:35.051Z,53.17
2023-05-08T10:06:59.117Z,53.65
2023-05-08T10:10:22.658Z,54.17
2023-05-08T10:13:46.493Z,54.75
2023-05-08T10:17:09.954Z,55.55
2023-05-08T10:20:33.592Z,54.67
2023-05-08T10:23:57.128Z,53.13
2023-05-08T10:27:20.823Z,55.00
2023-05-08T10:30:45.772Z,53.75
2023-05-08T10:34:09.626Z,53.66
2023-05-08T10:37:33.561Z,53.11
2023-05-08T10:40:58.990Z,51.81
2023-05-08T10:44:22.683Z,51.67
2023-05-08T10:47:46.627Z,51.71
2023-05-08T10:51:10.312Z,50.71
2023-05-08T10:54:33.878Z,49.54
2023-05-08T10:57:57.537Z,49.77
2023-05-08T11:01:21.661Z,49.76
2023-05-08T11:04:45.805Z,49.38
2023-05-08T11:08:09.838Z,49.22
2023-05-08T11:11:36.620Z,49.29
2023-05-08T11:15:00.312Z,48.60
2023-05-08T11:18:26.360Z,48.16
2023-05-08T11:21:49.854Z,48.11
2023-05-08T11:25:13.323Z,47.89
2023-05-08T11:28:37.448Z,48.56
2023-05-08T11:32:01.265Z,48.32
2023-05-08T11:35:25.578Z,48.47
2023-05-08T11:38:49.167Z,48.73
2023-05-08T11:42:12.956Z,49.11
2023-05-08T11:45:36.493Z,49.19
2023-05-08T11:49:04.275Z,49.68
2023-05-08T11:52:27.627Z,49.72
2023-05-08T11:55:51.221Z,50.14
2023-05-08T11:59:14.794Z,49.49
2023-05-08T12:02:38.486Z,49.77
2023-05-08T12:06:02.903Z,49.09
2023-05-08T12:09:26.849Z,48.41
2023-05-08T12:12:56.910Z,48.28
2023-05-08T12:16:27.045Z,48.60
2023-05-08T12:20:04.331Z,48.11
2023-05-08T12:23:29.054Z,48.08
2023-05-08T12:26:52.823Z,48.45
2023-05-08T12:30:16.877Z,48.66
2023-05-08T12:33:40.944Z,48.79
2023-05-08T12:37:04.598Z,49.18
2023-05-08T12:40:28.845Z,48.96
2023-05-08T12:43:53.171Z,50.03
2023-05-08T12:47:16.894Z,50.70
2023-05-08T12:50:41.073Z,51.41
2023-05-08T12:54:07.546Z,51.46
2023-05-08T12:57:31.725Z,51.34
2023-05-08T13:00:55.163Z,51.89
2023-05-08T13:04:20.168Z,52.09
2023-05-08T13:07:43.698Z,52.33
2023-05-08T13:11:09.497Z,52.29
2023-05-08T13:14:33.527Z,52.37
2023-05-08T13:17:58.289Z,52.06
2023-05-08T13:21:26.589Z,52.87
2023-05-08T13:24:51.423Z,53.31
2023-05-08T13:28:14.768Z,54.19
2023-05-08T13:31:38.350Z,55.49
2023-05-08T13:35:03.083Z,54.23
2023-05-08T13:38:26.813Z,54.04
2023-05-08T13:41:50.791Z,53.62
2023-05-08T13:45:18.823Z,53.30
2023-05-08T13:48:42.568Z,53.54
2023-05-08T13:52:05.980Z,52.61
2023-05-08T13:55:29.968Z,52.45
2023-05-08T13:58:54.105Z,52.07
2023-05-08T14:02:19.815Z,52.06
2023-05-08T14:05:44.600Z,51.84
2023-05-08T14:09:09.187Z,52.17
2023-05-08T14:12:36.880Z,52.08
2023-05-08T14:16:02.704Z,52.29
2023-05-08T14:19:31.579Z,52.26
2023-05-08T14:22:59.563Z,52.55
2023-05-08T14:26:23.768Z,52.37
2023-05-08T14:29:49.754Z,52.35
2023-05-08T14:33:13.512Z,52.82
2023-05-08T14:36:56.648Z,52.87
2023-05-08T14:40:22.665Z,53.24
2023-05-08T14:43:50.471Z,53.39
2023-05-08T14:47:14.373Z,53.29
2023-05-08T14:50:38.328Z,53.79
2023-05-08T14:54:02.081Z,54.21
2023-05-08T14:57:26.054Z,54.08
2023-05-08T15:00:49.798Z,54.04
2023-05-08T15:04:14.709Z,54.16
2023-05-08T15:07:41.402Z,54.60
2023-05-08T15:11:05.787Z,54.96
2023-05-08T15:14:30.313Z,53.97
2023-05-08T15:17:53.824Z,54.64
2023-05-08T15:26:11.077Z,54.82
2023-05-08T15:29:36.513Z,55.09
2023-05-08T15:33:00.408Z,54.75
2023-05-08T15:36:24.481Z,54.69
2023-05-08T15:39:50.548Z,54.79
2023-05-08T15:43:14.173Z,55.43
2023-05-08T15:46:39.869Z,55.46
2023-05-08T15:50:03.695Z,55.53
2023-05-08T15:53:28.863Z,55.81
2023-05-08T15:56:53.352Z,55.40
2023-05-08T16:00:22.992Z,55.65
2023-05-08T16:03:48.397Z,55.38
2023-05-08T16:07:15.171Z,54.88
2023-05-08T16:10:38.601Z,55.16
2023-05-08T16:14:02.564Z,55.83
2023-05-08T16:17:27.326Z,55.43
2023-05-08T16:20:53.618Z,55.64
2023-05-08T16:24:19.626Z,55.43
2023-05-08T16:27:45.503Z,55.62
2023-05-08T16:31:10.389Z,56.02
2023-05-08T16:34:36.074Z,55.82
2023-05-08T16:38:02.156Z,56.06
2023-05-08T16:41:28.269Z,56.02
2023-05-08T16:44:52.555Z,56.11
2023-05-08T16:48:16.625Z,56.58
2023-05-08T16:51:41.343Z,56.02
2023-05-08T16:55:05.482Z,55.95
2023-05-08T16:58:30.393Z,56.00
2023-05-08T17:01:54.549Z,55.90
2023-05-08T17:05:18.804Z,55.54
2023-05-08T17:08:43.650Z,55.99
2023-05-08T17:12:08.259Z,56.47
2023-05-08T17:15:33.076Z,57.29
2023-05-08T17:18:57.950Z,57.63
2023-05-08T17:22:22.397Z,58.30
2023-05-08T17:25:46.349Z,58.50
2023-05-08T17:29:09.896Z,59.08
2023-05-08T17:32:34.448Z,58.99
2023-05-08T17:35:59.224Z,59.13
2023-05-08T17:39:23.574Z,59.22
2023-05-08T17:42:51.040Z,59.54
2023-05-08T17:46:15.611Z,59.92
2023-05-08T17:49:40.681Z,59.83
2023-05-08T17:53:05.858Z,59.61
2023-05-08T17:56:31.163Z,59.24
2023-05-08T17:59:57.646Z,59.30
2023-05-08T18:03:24.467Z,59.02
2023-05-08T18:06:51.999Z,59.30
2023-05-08T18:10:16.397Z,58.98
2023-05-08T18:13:41.258Z,59.48
2023-05-08T18:17:07.416Z,59.38
2023-05-08T18:20:31.513Z,59.88
2023-05-08T18:23:55.785Z,59.94
2023-05-08T18:27:19.897Z,59.85
2023-05-08T18:30:45.600Z,57.83
2023-05-08T18:34:13.359Z,56.77
2023-05-08T18:37:37.366Z,56.36
2023-05-08T18:41:03.415Z,57.35
2023-05-08T18:44:28.185Z,57.64
2023-05-08T18:47:53.712Z,58.20
2023-05-08T18:51:18.951Z,58.09
2023-05-08T18:54:42.443Z,58.42
2023-05-08T18:58:06.867Z,58.54
2023-05-08T19:01:30.684Z,59.02
2023-05-08T19:04:54.639Z,59.35
2023-05-08T19:08:19.344Z,59.18
2023-05-08T19:11:43.276Z,59.84
2023-05-08T19:15:09.104Z,60.05
2023-05-08T19:18:32.761Z,60.18
2023-05-08T19:21:56.408Z,60.55
2023-05-08T19:25:20.109Z,60.47
2023-05-08T19:28:44.120Z,60.93
2023-05-08T19:32:08.076Z,60.51
2023-05-08T19:35:32.199Z,61.03
2023-05-08T19:38:57.285Z,61.71
2023-05-08T19:42:21.010Z,61.58
2023-05-08T19:45:46.031Z,62.22
2023-05-08T19:49:10.399Z,62.37
2023-05-08T19:52:34.452Z,62.43
2023-05-08T19:55:58.648Z,62.16
2023-05-08T19:59:21.986Z,62.60
2023-05-08T20:02:45.252Z,62.45
2023-05-08T20:06:09.890Z,62.06
2023-05-08T20:09:33.626Z,61.60
2023-05-08T20:12:57.425Z,62.50
2023-05-08T20:16:21.155Z,62.52
2023-05-08T20:19:44.865Z,61.92
2023-05-08T20:23:08.398Z,62.42
2023-05-08T20:26:33.098Z,62.59
2023-05-08T20:29:57.004Z,62.13
2023-05-08T20:33:21.026Z,62.79
2023-05-08T20:36:45.704Z,62.07
2023-05-08T20:40:10.246Z,62.50
2023-05-08T20:43:33.550Z,62.53
2023-05-08T20:46:58.267Z,63.78
2023-05-08T20:50:23.768Z,63.13
2023-05-08T20:53:11.500Z,63.30
2023-05-08T20:55:40.090Z,62.66
2023-05-08T20:58:11.924Z,62.79
2023-05-08T21:00:40.263Z,62.65
2023-05-08T21:03:09.322Z,62.97
2023-05-08T21:05:37.647Z,62.63
2023-05-08T21:08:06.604Z,62.55
2023-05-08T21:10:34.931Z,62.62
2023-05-08T21:13:03.018Z,62.20
2023-05-08T21:15:31.844Z,62.51
2023-05-08T21:17:59.716Z,62.24
2023-05-08T21:20:28.103Z,61.82
2023-05-08T21:22:56.481Z,62.26
2023-05-08T21:25:26.042Z,62.31
2023-05-08T21:37:48.906Z,62.93
2023-05-08T21:40:39.156Z,62.87
2023-05-08T21:43:07.809Z,62.64
2023-05-08T21:45:54.391Z,62.05
2023-05-08T21:48:24.503Z,62.51
2023-05-08T21:50:54.062Z,62.32
2023-05-08T21:53:41.480Z,62.15
2023-05-08T21:56:28.080Z,60.92
2023-05-08T21:59:14.337Z,61.15
2023-05-08T22:01:44.590Z,61.85
2023-05-08T22:04:12.427Z,60.95
2023-05-08T22:06:43.325Z,60.75
2023-05-08T22:09:12.685Z,60.60
2023-05-08T22:11:40.994Z,61.16
2023-05-08T22:14:10.188Z,60.72
2023-05-08T22:16:38.737Z,60.31
2023-05-08T22:19:07.621Z,60.46
2023-05-08T22:21:36.752Z,60.27
2023-05-08T22:24:05.919Z,60.53
2023-05-08T22:26:53.745Z,60.68
2023-05-08T22:29:25.980Z,60.78
2023-05-08T22:32:19.471Z,61.53
2023-05-08T22:35:09.560Z,61.73
2023-05-08T22:38:00.145Z,61.68
2023-05-08T22:40:50.626Z,61.05
2023-05-08T22:43:20.065Z,60.82
2023-05-08T22:46:07.581Z,60.30
2023-05-08T22:48:37.966Z,60.46
2023-05-08T22:51:07.386Z,60.64
2023-05-08T22:53:36.039Z,60.89
2023-05-08T22:56:05.658Z,59.75
2023-05-08T22:58:34.710Z,60.66
2023-05-08T23:01:03.016Z,60.33
2023-05-08T23:03:54.132Z,59.38
2023-05-08T23:06:40.848Z,59.96
2023-05-08T23:09:28.207Z,59.05
2023-05-08T23:12:17.618Z,59.31
2023-05-08T23:14:48.946Z,59.28
2023-05-08T23:17:21.269Z,60.01
2023-05-08T23:19:52.880Z,59.87
2023-05-08T23:22:23.309Z,58.94
2023-05-08T23:24:53.499Z,58.97
2023-05-08T23:27:21.898Z,59.12
2023-05-08T23:29:53.038Z,58.68
2023-05-08T23:32:21.855Z,58.60
2023-05-08T23:34:50.964Z,58.60
2023-05-08T23:37:20.121Z,59.03
2023-05-08T23:39:50.469Z,58.20
2023-05-08T23:42:18.601Z,57.22
2023-05-08T23:44:49.449Z,58.98
2023-05-08T23:47:19.661Z,58.98
2023-05-08T23:49:49.030Z,59.30
2023-05-08T23:52:17.867Z,60.56
2023-05-08T23:54:46.775Z,61.26
2023-05-08T23:57:34.169Z,60.65
